Time;durP1;ratioP1;P1;durP2;ratioP2;P2;SDS_P1;SDS_P2;PMS_P1;PMS_P2;Temp;Humidity;BMP_temperature;BMP_pressure;BME280_temperature;BME280_humidity;BME280_pressure;Samples;Min_cycle;Max_cycle;Signal;HPM_P1;HPM_P2
2023/09/21 00:00:45;;;;;;;;;0.00;0.00;;;;;21.71;59.29;99750.44;5086636;27;46267;-62
2023/09/21 00:03:12;;;;;;;;;1.50;1.50;;;;;21.72;59.06;99763.78;5090138;27;45741;-62
2023/09/21 00:05:37;;;;;;;;;2.00;2.00;;;;;21.71;59.70;99748.56;5094849;27;45448;-62
2023/09/21 00:08:04;;;;;;;;;2.00;1.75;;;;;21.70;59.85;99754.97;5091817;27;56625;-62
2023/09/21 00:10:32;;;;;;;;;3.00;2.67;;;;;21.67;59.83;99758.03;5089798;27;46041;-62
2023/09/21 00:12:59;;;;;;;;;4.00;2.67;;;;;21.68;59.80;99750.75;5090365;27;45392;-62
2023/09/21 00:15:30;;;;;;;;;1.00;1.00;;;;;21.65;60.59;99746.53;5093399;27;46621;-62
2023/09/21 00:17:57;;;;;;;;;0.25;0.25;;;;;21.64;60.30;99747.56;5096230;27;45732;-62
2023/09/21 00:20:28;;;;;;;;;3.00;3.00;;;;;21.59;61.67;99742.69;5094103;27;46243;-62
2023/09/21 00:22:54;;;;;;;;;3.00;1.75;;;;;21.57;61.52;99747.41;5093785;27;45309;-63
2023/09/21 00:25:21;;;;;;;;;2.00;2.00;;;;;21.54;61.73;99738.78;5090679;27;45304;-62
2023/09/21 00:27:47;;;;;;;;;2.00;2.00;;;;;21.53;62.72;99739.78;5089140;27;45361;-62
2023/09/21 00:30:12;;;;;;;;;1.00;1.00;;;;;21.50;61.50;99735.59;5090476;27;67222;-63
2023/09/21 00:32:38;;;;;;;;;1.25;1.25;;;;;21.48;62.08;99733.06;5087811;27;45387;-62
2023/09/21 00:35:09;;;;;;;;;2.00;2.00;;;;;21.44;63.91;99728.97;5092426;27;45367;-62
2023/09/21 00:37:34;;;;;;;;;2.25;2.25;;;;;21.44;63.11;99730.84;5073977;27;45778;-62
2023/09/21 00:40:00;;;;;;;;;3.00;3.00;;;;;21.46;63.16;99718.00;5092990;27;46067;-62
2023/09/21 00:42:25;;;;;;;;;2.50;2.50;;;;;21.47;62.90;99725.09;5091043;27;45274;-62
2023/09/21 00:44:51;;;;;;;;;2.00;2.00;;;;;21.45;63.04;99711.75;5076923;27;45268;-62
2023/09/21 00:47:16;;;;;;;;;2.00;2.00;;;;;21.42;63.30;99717.50;5094754;27;45371;-62
2023/09/21 00:49:42;;;;;;;;;1.25;1.25;;;;;21.41;63.27;99720.41;5074794;27;70835;-62
2023/09/21 00:52:11;;;;;;;;;2.00;2.00;;;;;21.41;63.20;99723.09;5092257;27;45453;-62
2023/09/21 00:54:38;;;;;;;;;1.75;1.00;;;;;21.38;63.22;99727.00;5098768;27;45506;-62
2023/09/21 00:57:05;;;;;;;;;0.00;0.00;;;;;21.42;63.60;99728.34;5094021;27;45387;-62
2023/09/21 00:59:35;;;;;;;;;1.75;1.00;;;;;21.46;63.09;99734.25;5087271;27;46175;-62
2023/09/21 01:02:01;;;;;;;;;1.00;1.00;;;;;21.42;64.25;99727.47;5096845;27;45479;-62
2023/09/21 01:04:26;;;;;;;;;1.00;1.00;;;;;21.37;66.02;99735.25;5096593;27;45505;-62
2023/09/21 01:06:52;;;;;;;;;1.00;1.00;;;;;21.24;67.17;99720.44;5099833;27;61569;-62
2023/09/21 01:09:17;;;;;;;;;2.50;1.50;;;;;21.10;67.13;99705.75;5091389;27;45986;-62
2023/09/21 01:11:43;;;;;;;;;2.00;1.00;;;;;21.00;67.83;99691.56;5094379;27;45820;-63
2023/09/21 01:14:08;;;;;;;;;2.00;2.00;;;;;20.93;68.11;99706.78;5072438;27;45484;-62
2023/09/21 01:16:34;;;;;;;;;1.25;1.25;;;;;20.87;68.97;99702.06;5087515;27;45687;-62
2023/09/21 01:18:59;;;;;;;;;2.00;2.00;;;;;20.80;68.08;99710.00;5089518;27;46254;-62
2023/09/21 01:21:35;;;;;;;;;2.00;1.25;;;;;20.79;68.30;99714.59;5083084;27;45462;-62
2023/09/21 01:24:01;;;;;;;;;1.50;1.50;;;;;20.84;68.66;99719.47;5073731;28;45425;-62
2023/09/21 01:26:26;;;;;;;;;1.75;1.75;;;;;20.86;68.84;99717.44;5063474;27;69649;-62
2023/09/21 01:28:52;;;;;;;;;1.00;1.00;;;;;20.84;70.13;99714.06;5083413;27;74742;-62
2023/09/21 01:31:18;;;;;;;;;3.00;1.50;;;;;20.80;69.74;99702.75;5094647;27;45475;-62
2023/09/21 01:33:44;;;;;;;;;1.00;1.00;;;;;20.75;71.83;99712.38;5088588;27;45485;-62
2023/09/21 01:36:12;;;;;;;;;1.00;1.00;;;;;20.63;77.15;99706.44;5085603;27;45656;-62
2023/09/21 01:38:45;;;;;;;;;1.67;1.00;;;;;20.57;74.12;99699.00;5090699;27;46303;-62
2023/09/21 01:41:12;;;;;;;;;0.33;0.33;;;;;20.52;76.56;99704.06;5081692;27;45498;-62
2023/09/21 01:43:38;;;;;;;;;2.00;1.00;;;;;20.29;78.55;99683.13;5089876;27;45368;-62
2023/09/21 01:46:04;;;;;;;;;1.00;1.00;;;;;20.16;75.08;99692.53;5090367;27;46212;-62
2023/09/21 01:48:30;;;;;;;;;1.00;0.00;;;;;20.09;77.97;99694.22;5083851;27;46323;-62
2023/09/21 01:50:57;;;;;;;;;2.00;2.00;;;;;19.91;82.57;99696.22;5089335;27;71794;-62
2023/09/21 01:53:23;;;;;;;;;1.67;1.67;;;;;19.73;83.15;99694.44;5081308;27;45316;-63
2023/09/21 01:55:50;;;;;;;;;2.00;1.00;;;;;19.49;93.78;99692.50;5092115;27;45569;-65
2023/09/21 01:58:23;;;;;;;;;1.67;1.67;;;;;19.20;92.78;99682.06;5084181;27;45702;-64
2023/09/21 02:00:49;;;;;;;;;1.00;1.00;;;;;18.98;96.45;99674.34;5091395;27;46562;-64
2023/09/21 02:03:19;;;;;;;;;1.00;1.00;;;;;18.80;97.64;99671.66;5082553;27;45473;-64
2023/09/21 02:05:46;;;;;;;;;0.00;0.00;;;;;18.64;100.00;99667.00;5091824;27;45342;-64
2023/09/21 02:08:12;;;;;;;;;1.00;1.00;;;;;18.58;100.00;99664.09;5094028;27;46087;-64
2023/09/21 02:10:38;;;;;;;;;1.00;1.00;;;;;18.56;100.00;99655.31;5082491;27;45256;-64
2023/09/21 02:13:07;;;;;;;;;1.67;1.67;;;;;18.56;100.00;99658.03;5082493;27;45844;-64
2023/09/21 02:15:35;;;;;;;;;0.75;0.75;;;;;18.56;100.00;99640.00;5063346;28;45449;-64
2023/09/21 02:18:02;;;;;;;;;2.50;1.75;;;;;18.60;100.00;99638.69;5092348;27;46141;-64
2023/09/21 02:20:32;;;;;;;;;2.00;2.00;;;;;18.66;100.00;99631.84;5084681;27;45317;-64
2023/09/21 02:22:59;;;;;;;;;2.33;2.33;;;;;18.73;100.00;99637.44;5091501;27;45511;-65
2023/09/21 02:25:25;;;;;;;;;3.00;2.00;;;;;18.73;100.00;99637.44;5085747;27;45473;-64
2023/09/21 02:27:51;;;;;;;;;1.00;1.00;;;;;18.72;100.00;99628.53;5089270;27;46880;-64
2023/09/21 02:30:21;;;;;;;;;3.67;1.33;;;;;18.73;100.00;99630.19;5086899;27;45564;-65
2023/09/21 02:32:49;;;;;;;;;1.50;1.50;;;;;18.75;100.00;99624.66;5089063;27;45497;-64
2023/09/21 02:35:16;;;;;;;;;3.00;3.00;;;;;18.76;100.00;99621.81;5079703;27;45617;-64
2023/09/21 02:37:49;;;;;;;;;3.00;1.67;;;;;18.81;99.52;99614.09;5086156;27;46243;-64
2023/09/21 02:40:16;;;;;;;;;2.67;1.33;;;;;18.85;98.30;99603.84;5086420;27;45600;-64
2023/09/21 02:42:42;;;;;;;;;3.00;2.00;;;;;18.88;99.26;99611.63;5093537;27;45259;-64
2023/09/21 02:45:10;;;;;;;;;1.00;1.00;;;;;18.90;98.13;99593.47;5082728;27;45184;-64
2023/09/21 02:47:36;;;;;;;;;1.33;1.33;;;;;18.96;98.04;99592.00;5098618;27;46162;-64
2023/09/21 02:50:14;;;;;;;;;1.67;1.67;;;;;18.96;98.74;99594.69;5074561;27;45409;-64
2023/09/21 02:53:06;;;;;;;;;2.00;2.00;;;;;18.98;98.06;99585.44;5094504;27;45431;-64
2023/09/21 02:55:33;;;;;;;;;1.67;1.67;;;;;18.97;98.43;99582.91;5091808;27;45391;-64
2023/09/21 02:58:10;;;;;;;;;1.00;1.00;;;;;18.99;96.95;99589.81;5083096;27;46162;-64
2023/09/21 03:00:39;;;;;;;;;2.00;2.00;;;;;19.04;97.35;99575.03;5063401;27;45475;-64
2023/09/21 03:03:06;;;;;;;;;1.00;1.00;;;;;19.05;97.17;99574.84;5089988;27;45384;-64
2023/09/21 03:05:33;;;;;;;;;1.67;1.33;;;;;19.05;98.03;99574.84;5092099;27;45533;-64
2023/09/21 03:08:14;;;;;;;;;1.00;1.00;;;;;19.05;97.28;99568.63;5082979;27;47202;-64
2023/09/21 03:10:44;;;;;;;;;1.00;1.00;;;;;19.08;96.36;99568.31;5084194;27;45550;-64
2023/09/21 03:13:18;;;;;;;;;2.00;1.00;;;;;19.10;96.79;99577.03;5082141;27;45351;-65
2023/09/21 03:15:48;;;;;;;;;1.33;1.00;;;;;19.13;95.77;99565.97;5084711;27;45716;-64
2023/09/21 03:18:14;;;;;;;;;1.67;1.67;;;;;19.15;96.78;99570.19;5088243;27;46490;-64
2023/09/21 03:20:40;;;;;;;;;1.00;1.00;;;;;19.15;96.53;99572.88;5094074;27;45594;-64
2023/09/21 03:23:11;;;;;;;;;1.00;1.00;;;;;19.16;95.96;99579.97;5097562;27;45351;-64
2023/09/21 03:25:40;;;;;;;;;2.67;2.00;;;;;19.16;95.68;99571.88;5085560;27;45492;-63
2023/09/21 03:28:15;;;;;;;;;1.50;0.75;;;;;19.17;95.24;99568.16;5088629;27;46439;-64
2023/09/21 03:30:48;;;;;;;;;1.75;1.00;;;;;19.15;95.95;99575.56;5086103;27;45726;-64
2023/09/21 03:33:15;;;;;;;;;1.25;0.25;;;;;19.18;94.71;99569.84;5096306;27;45450;-63
2023/09/21 03:35:41;;;;;;;;;1.67;1.00;;;;;19.22;94.07;99567.69;5095326;27;45396;-63
2023/09/21 03:38:11;;;;;;;;;1.75;1.00;;;;;19.25;94.31;99572.75;5093540;27;45502;-63
2023/09/21 03:40:36;;;;;;;;;2.00;2.00;;;;;19.29;93.97;99578.66;5086550;27;45374;-63
2023/09/21 03:43:02;;;;;;;;;0.00;0.00;;;;;19.31;94.07;99572.09;5094777;27;66350;-63
2023/09/21 03:45:27;;;;;;;;;0.00;0.00;;;;;19.32;93.22;99579.19;5084956;27;45374;-64
2023/09/21 03:47:53;;;;;;;;;0.00;0.00;;;;;19.31;93.82;99555.09;5081963;27;73118;-63
2023/09/21 03:50:19;;;;;;;;;0.67;0.33;;;;;19.29;93.76;99552.53;5092308;27;45414;-63
2023/09/21 03:52:45;;;;;;;;;0.00;0.00;;;;;19.29;94.05;99562.47;5065334;28;45379;-63
2023/09/21 03:55:15;;;;;;;;;3.00;1.00;;;;;19.27;93.98;99564.50;5090386;27;45601;-62
2023/09/21 03:57:40;;;;;;;;;0.00;0.00;;;;;19.23;94.81;99561.28;5091030;27;45898;-63
2023/09/21 04:00:26;;;;;;;;;1.00;1.00;;;;;19.22;94.66;99551.50;5088101;27;45257;-63
2023/09/21 04:02:53;;;;;;;;;2.50;0.50;;;;;19.21;94.39;99574.06;5085758;27;45510;-63
2023/09/21 04:05:19;;;;;;;;;2.25;1.00;;;;;19.23;93.32;99555.03;5072338;27;45560;-63
2023/09/21 04:07:48;;;;;;;;;1.00;1.00;;;;;19.23;93.31;99547.81;5079691;27;46213;-63
2023/09/21 04:10:14;;;;;;;;;0.00;0.00;;;;;19.27;94.21;99551.03;5085027;27;45588;-64
2023/09/21 04:12:39;;;;;;;;;1.00;1.00;;;;;19.27;94.24;99541.09;5065776;27;45637;-65
2023/09/21 04:15:08;;;;;;;;;2.00;0.00;;;;;19.27;93.57;99548.34;5088056;27;68935;-63
2023/09/21 04:17:35;;;;;;;;;1.00;1.00;;;;;19.25;93.28;99550.34;5072092;27;46148;-63
2023/09/21 04:20:01;;;;;;;;;0.33;0.33;;;;;19.26;93.68;99552.03;5084755;27;45724;-63
2023/09/21 04:22:26;;;;;;;;;0.00;0.00;;;;;19.24;94.31;99538.72;5075374;27;45530;-63
2023/09/21 04:24:52;;;;;;;;;0.75;0.75;;;;;19.25;93.65;99547.66;5082223;27;45411;-63
2023/09/21 04:27:17;;;;;;;;;0.00;0.00;;;;;19.22;94.34;99532.66;5049399;27;48498;-64
2023/09/21 04:29:43;;;;;;;;;2.25;0.50;;;;;19.23;93.63;99536.16;5086322;27;45462;-63
2023/09/21 04:32:10;;;;;;;;;0.00;0.00;;;;;19.21;94.54;99543.59;5085294;27;45526;-63
2023/09/21 04:34:36;;;;;;;;;0.75;0.75;;;;;19.20;94.87;99525.72;5084367;27;45953;-63
2023/09/21 04:37:02;;;;;;;;;0.00;0.00;;;;;19.15;94.55;99528.91;5071069;27;47906;-63
2023/09/21 04:39:27;;;;;;;;;0.75;0.75;;;;;19.15;94.88;99537.84;5087828;27;45335;-63
2023/09/21 04:41:52;;;;;;;;;0.00;0.00;;;;;19.16;94.85;99533.28;5064309;27;45451;-63
2023/09/21 04:44:18;;;;;;;;;1.75;1.00;;;;;19.07;97.23;99528.88;5084897;27;62902;-63
2023/09/21 04:46:43;;;;;;;;;0.50;0.50;;;;;19.00;96.95;99526.00;5082810;27;45260;-63
2023/09/21 04:49:08;;;;;;;;;0.25;0.25;;;;;18.93;97.73;99506.94;5089341;27;46044;-63
2023/09/21 04:51:34;;;;;;;;;0.75;0.75;;;;;18.92;97.89;99510.63;5090174;27;45295;-63
2023/09/21 04:54:00;;;;;;;;;0.00;0.00;;;;;18.90;100.00;99499.16;5074529;27;45839;-63
2023/09/21 04:56:26;;;;;;;;;0.00;0.00;;;;;18.87;100.00;99488.69;5090642;27;46177;-63
2023/09/21 04:58:55;;;;;;;;;1.00;1.00;;;;;18.89;100.00;99486.72;5096734;27;45487;-63
2023/09/21 05:01:24;;;;;;;;;1.00;1.00;;;;;18.90;100.00;99482.19;5086326;27;45369;-63
2023/09/21 05:03:49;;;;;;;;;2.00;0.75;;;;;18.91;99.49;99475.78;5090077;27;46337;-63
2023/09/21 05:06:15;;;;;;;;;1.00;1.00;;;;;18.90;99.05;99471.41;5095246;27;46196;-63
2023/09/21 05:08:40;;;;;;;;;1.00;1.00;;;;;18.89;97.43;99465.19;5069190;28;68581;-63
2023/09/21 05:11:05;;;;;;;;;1.00;1.00;;;;;18.90;97.32;99469.53;5088181;27;64797;-63
2023/09/21 05:13:31;;;;;;;;;1.00;1.00;;;;;18.92;97.28;99483.69;5090104;27;45422;-63
2023/09/21 05:15:56;;;;;;;;;1.33;1.33;;;;;18.94;97.55;99483.53;5088031;27;61409;-62
2023/09/21 05:18:22;;;;;;;;;1.00;1.00;;;;;18.94;96.61;99489.78;5086790;27;45404;-62
2023/09/21 05:20:48;;;;;;;;;1.00;1.00;;;;;18.95;96.69;99491.44;5084453;27;45469;-62
2023/09/21 05:23:14;;;;;;;;;0.33;0.33;;;;;18.96;95.65;99497.69;5092139;27;45335;-63
2023/09/21 05:25:40;;;;;;;;;1.00;1.00;;;;;18.94;96.15;99492.47;5087533;27;45533;-62
2023/09/21 05:28:05;;;;;;;;;1.00;1.00;;;;;18.97;96.11;99499.38;5085495;27;62853;-62
2023/09/21 05:30:31;;;;;;;;;2.67;2.67;;;;;18.98;95.85;99496.53;5088834;27;67381;-62
2023/09/21 05:32:57;;;;;;;;;1.67;1.67;;;;;18.98;96.43;99499.22;5088883;27;45566;-63
2023/09/21 05:35:23;;;;;;;;;4.00;2.00;;;;;18.94;97.99;99507.78;5086257;27;46211;-63
2023/09/21 05:37:49;;;;;;;;;1.00;1.00;;;;;18.95;97.51;99498.69;5086689;27;45763;-63
2023/09/21 05:40:14;;;;;;;;;4.67;2.00;;;;;18.95;96.17;99506.78;5082405;27;45529;-62
2023/09/21 05:42:41;;;;;;;;;1.67;1.67;;;;;18.94;95.84;99505.94;5089551;27;45523;-62
2023/09/21 05:45:07;;;;;;;;;3.00;2.67;;;;;18.93;96.81;99506.94;5084995;27;46128;-63
2023/09/21 05:47:33;;;;;;;;;1.50;1.50;;;;;18.91;97.29;99495.47;5086247;27;45422;-62
2023/09/21 05:49:58;;;;;;;;;2.00;2.00;;;;;18.93;96.05;99509.66;5094312;27;63418;-62
2023/09/21 05:52:25;;;;;;;;;1.00;1.00;;;;;18.90;96.57;99504.56;5085042;27;62966;-63
2023/09/21 05:54:51;;;;;;;;;3.00;3.00;;;;;18.91;96.17;99508.13;5090078;27;46143;-63
2023/09/21 05:57:16;;;;;;;;;3.00;1.33;;;;;18.94;95.75;99513.16;5080640;27;45212;-62
2023/09/21 05:59:41;;;;;;;;;3.00;1.00;;;;;18.96;95.50;99522.78;5082980;27;68041;-63
2023/09/21 06:02:13;;;;;;;;;1.33;1.33;;;;;18.97;95.50;99523.63;5087371;27;48150;-63
2023/09/21 06:04:39;;;;;;;;;1.67;1.67;;;;;18.97;95.68;99535.25;5090753;27;47029;-63
2023/09/21 06:07:04;;;;;;;;;2.67;2.67;;;;;18.95;100.00;99534.56;5088801;27;45360;-63
2023/09/21 06:09:30;;;;;;;;;1.00;1.00;;;;;18.95;99.86;99536.41;5094242;27;69055;-63
2023/09/21 06:11:55;;;;;;;;;5.00;1.67;;;;;18.93;97.84;99547.34;5089957;27;45352;-63
2023/09/21 06:14:22;;;;;;;;;3.00;3.00;;;;;18.88;97.03;99528.09;5084328;27;68627;-64
2023/09/21 06:16:47;;;;;;;;;2.00;2.00;;;;;18.80;100.00;99530.78;5090273;27;45408;-63
2023/09/21 06:19:13;;;;;;;;;2.00;2.00;;;;;-147.14;100.00;58812.66;5081542;27;45374;-63
2023/09/21 06:21:39;;;;;;;;;4.00;2.00;;;;;-147.14;100.00;58812.66;5085144;27;45252;-62
2023/09/21 06:24:08;;;;;;;;;2.00;2.00;;;;;-147.14;100.00;58812.66;5084108;27;47069;-63
2023/09/21 06:26:34;;;;;;;;;2.00;2.00;;;;;-147.14;100.00;58812.66;5088281;27;45524;-63
2023/09/21 06:29:00;;;;;;;;;1.00;1.00;;;;;-147.14;100.00;58812.66;5096453;27;45385;-63
2023/09/21 06:31:25;;;;;;;;;1.00;1.00;;;;;-147.14;100.00;58812.66;5088223;27;66029;-63
2023/09/21 06:33:53;;;;;;;;;3.00;0.50;;;;;-147.14;100.00;58812.66;5089905;27;45412;-63
2023/09/21 06:36:20;;;;;;;;;1.50;1.50;;;;;-147.14;100.00;58812.66;5087986;27;46852;-61
2023/09/21 06:38:45;;;;;;;;;1.00;1.00;;;;;-147.14;100.00;58812.66;5094173;27;45669;-60
2023/09/21 06:41:11;;;;;;;;;1.00;1.00;;;;;-147.14;100.00;58812.66;5085747;27;45552;-61
2023/09/21 06:43:38;;;;;;;;;1.00;1.00;;;;;-147.14;100.00;58812.66;5096643;27;46297;-61
2023/09/21 06:46:07;;;;;;;;;1.00;1.00;;;;;-147.14;100.00;58812.66;5068502;27;45607;-61
2023/09/21 06:48:32;;;;;;;;;2.33;1.67;;;;;-147.14;100.00;58812.66;5089300;27;45311;-61
2023/09/21 06:50:57;;;;;;;;;2.00;2.00;;;;;-147.14;100.00;58812.66;5078609;27;70514;-61
2023/09/21 06:53:24;;;;;;;;;1.67;1.67;;;;;-147.14;100.00;58812.66;5079211;27;59005;-61
2023/09/21 06:55:50;;;;;;;;;3.00;3.00;;;;;-147.14;100.00;58812.66;5077016;27;45752;-61
2023/09/21 06:58:15;;;;;;;;;1.00;1.00;;;;;-147.14;100.00;58812.66;5079834;27;45385;-62
2023/09/21 07:00:42;;;;;;;;;3.67;3.00;;;;;-147.14;100.00;58812.66;5096415;27;66610;-61
2023/09/21 07:03:08;;;;;;;;;1.00;1.00;;;;;-147.14;100.00;58812.66;5087624;27;46147;-61
2023/09/21 07:05:33;;;;;;;;;1.00;1.00;;;;;-147.14;100.00;58812.66;5098271;27;45369;-61
2023/09/21 07:07:59;;;;;;;;;2.00;2.00;;;;;-147.14;100.00;58812.66;5086633;27;61609;-61
2023/09/21 07:10:24;;;;;;;;;4.33;2.00;;;;;-147.14;100.00;58812.66;5083397;27;67408;-62
2023/09/21 07:12:50;;;;;;;;;2.00;2.00;;;;;-147.14;100.00;58812.66;5098912;27;45389;-61
2023/09/21 07:15:15;;;;;;;;;1.33;1.33;;;;;-147.14;100.00;58812.66;5097000;27;45386;-61
2023/09/21 07:17:41;;;;;;;;;1.00;1.00;;;;;-147.14;100.00;58812.66;5098252;27;66399;-61
2023/09/21 07:20:07;;;;;;;;;1.00;1.00;;;;;-147.14;100.00;58812.66;5097145;27;45342;-61
2023/09/21 07:22:33;;;;;;;;;2.67;2.67;;;;;-147.14;100.00;58812.66;5097498;27;46330;-62
2023/09/21 07:25:00;;;;;;;;;2.00;2.00;;;;;-147.14;100.00;58812.66;5096315;27;45282;-61
2023/09/21 07:27:25;;;;;;;;;2.00;2.00;;;;;-147.14;100.00;58812.66;5098002;27;45255;-61
2023/09/21 07:29:55;;;;;;;;;1.67;1.67;;;;;-147.14;100.00;58812.66;5078721;27;65868;-61
2023/09/21 07:32:21;;;;;;;;;3.33;3.33;;;;;-147.14;100.00;58812.66;5090298;27;47597;-61
2023/09/21 07:34:48;;;;;;;;;3.00;3.00;;;;;-147.14;100.00;58812.66;5094293;27;70604;-61
2023/09/21 07:37:16;;;;;;;;;3.00;3.00;;;;;-147.14;100.00;58812.66;5094735;27;46443;-61
2023/09/21 07:39:41;;;;;;;;;4.00;3.00;;;;;-147.14;100.00;58812.66;5099649;27;45556;-62
2023/09/21 07:42:07;;;;;;;;;1.67;1.67;;;;;-147.14;100.00;58812.66;5088801;27;46029;-62
2023/09/21 07:44:32;;;;;;;;;2.00;2.00;;;;;-147.14;100.00;58812.66;5096666;27;45255;-61
2023/09/21 07:46:57;;;;;;;;;2.33;2.00;;;;;-147.14;100.00;58812.66;5099579;27;45457;-61
2023/09/21 07:49:25;;;;;;;;;2.00;2.00;;;;;-147.14;100.00;58812.66;5080363;27;45282;-62
2023/09/21 07:51:51;;;;;;;;;2.00;2.00;;;;;-147.14;100.00;58812.66;5088600;27;46164;-61
2023/09/21 07:54:16;;;;;;;;;3.00;1.67;;;;;-147.14;100.00;58812.66;5082958;27;45341;-62
2023/09/21 07:56:42;;;;;;;;;2.00;2.00;;;;;-147.14;100.00;58812.66;5099707;27;45303;-61
2023/09/21 07:59:09;;;;;;;;;3.00;1.67;;;;;-147.14;100.00;58812.66;5085989;27;45248;-61
2023/09/21 08:01:35;;;;;;;;;3.00;2.00;;;;;-147.14;100.00;58812.66;5099480;27;45741;-62
2023/09/21 08:04:00;;;;;;;;;1.00;1.00;;;;;-147.14;100.00;58812.66;5094057;27;45688;-62
2023/09/21 08:06:28;;;;;;;;;1.67;1.67;;;;;-147.14;100.00;58812.66;5090048;27;45495;-62
2023/09/21 08:08:54;;;;;;;;;3.00;1.00;;;;;-147.14;100.00;58812.66;5094775;27;45489;-62
2023/09/21 08:11:19;;;;;;;;;1.00;1.00;;;;;-147.14;100.00;58812.66;5090270;27;46975;-62
2023/09/21 08:13:45;;;;;;;;;1.00;1.00;;;;;-147.14;100.00;58812.66;5083892;27;45430;-62
2023/09/21 08:16:10;;;;;;;;;0.00;0.00;;;;;-147.14;100.00;58812.66;5070374;28;45488;-62
2023/09/21 08:18:39;;;;;;;;;1.00;1.00;;;;;-147.14;100.00;58812.66;5097107;27;45497;-61
2023/09/21 08:21:04;;;;;;;;;1.00;1.00;;;;;-147.14;100.00;58812.66;5098860;27;46637;-62
2023/09/21 08:23:30;;;;;;;;;1.33;0.67;;;;;-147.14;100.00;58812.66;5101959;27;45312;-62
2023/09/21 08:25:56;;;;;;;;;2.00;1.00;;;;;-147.14;100.00;58812.66;5103076;27;45362;-62
2023/09/21 08:28:23;;;;;;;;;1.00;1.00;;;;;-147.14;100.00;58812.66;5101494;27;45520;-62
2023/09/21 08:30:48;;;;;;;;;2.00;2.00;;;;;-147.14;100.00;58812.66;5102535;27;46340;-62
2023/09/21 08:33:14;;;;;;;;;2.00;2.00;;;;;-147.14;100.00;58812.66;5099503;27;45369;-62
2023/09/21 08:35:43;;;;;;;;;1.00;1.00;;;;;-147.14;100.00;58812.66;5101637;27;45346;-62
2023/09/21 08:38:09;;;;;;;;;1.00;1.00;;;;;-147.14;100.00;58812.66;5097712;27;45583;-62
2023/09/21 08:40:35;;;;;;;;;2.00;2.00;;;;;-147.14;100.00;58812.66;5083162;27;45739;-62
2023/09/21 08:43:01;;;;;;;;;2.33;2.33;;;;;-147.14;100.00;58812.66;5081194;27;72805;-61
2023/09/21 08:45:27;;;;;;;;;2.33;2.00;;;;;-147.14;100.00;58812.66;5084323;27;45480;-60
2023/09/21 08:47:52;;;;;;;;;2.00;2.00;;;;;-147.14;100.00;58812.66;5070041;27;69509;-60
2023/09/21 08:50:18;;;;;;;;;2.67;1.33;;;;;-147.14;100.00;58812.66;5096812;27;61215;-60
2023/09/21 08:52:44;;;;;;;;;2.67;1.00;;;;;-147.14;100.00;58812.66;5069938;27;45774;-61
2023/09/21 08:55:11;;;;;;;;;1.33;1.33;;;;;-147.14;100.00;58812.66;5102103;27;45344;-61
2023/09/21 08:57:37;;;;;;;;;2.67;1.33;;;;;-147.14;100.00;58812.66;5097921;27;45500;-60
2023/09/21 09:00:08;;;;;;;;;3.00;3.00;;;;;-147.14;100.00;58812.66;5090747;27;45966;-60
2023/09/21 09:02:35;;;;;;;;;2.00;2.00;;;;;-147.14;100.00;58812.66;5095318;27;45298;-60
2023/09/21 09:05:04;;;;;;;;;1.50;1.50;;;;;-147.14;100.00;58812.66;5079323;27;45571;-61
2023/09/21 09:07:31;;;;;;;;;2.00;2.00;;;;;-147.14;100.00;58812.66;5083535;27;45749;-61
2023/09/21 09:09:57;;;;;;;;;2.00;2.00;;;;;-147.14;100.00;58812.66;5100671;27;46127;-61
2023/09/21 09:12:23;;;;;;;;;2.00;2.00;;;;;-147.14;100.00;58812.66;5089387;27;58593;-61
2023/09/21 09:14:50;;;;;;;;;1.67;1.67;;;;;-147.14;100.00;58812.66;5101966;27;45365;-61
2023/09/21 09:17:16;;;;;;;;;3.67;2.00;;;;;-147.14;100.00;58812.66;5075223;28;45365;-61
2023/09/21 09:19:42;;;;;;;;;3.00;3.00;;;;;-147.14;100.00;58812.66;5098156;27;46099;-61
2023/09/21 09:22:10;;;;;;;;;2.00;2.00;;;;;-147.14;100.00;58812.66;5090703;27;45493;-62
2023/09/21 09:24:36;;;;;;;;;3.00;2.67;;;;;-147.14;100.00;58812.66;5101835;27;45319;-62
2023/09/21 09:27:01;;;;;;;;;2.67;2.00;;;;;-147.14;100.00;58812.66;5102023;27;45730;-62
2023/09/21 09:29:27;;;;;;;;;1.00;1.00;;;;;-147.14;100.00;58812.66;5100077;27;73075;-62
2023/09/21 09:31:52;;;;;;;;;4.67;3.00;;;;;-147.14;100.00;58812.66;5083409;27;45438;-62
2023/09/21 09:34:18;;;;;;;;;4.00;4.00;;;;;-147.14;100.00;58812.66;5098969;27;56646;-62
2023/09/21 09:36:51;;;;;;;;;2.67;1.00;;;;;-147.14;100.00;58812.66;5096996;27;45627;-62
2023/09/21 09:39:18;;;;;;;;;0.00;0.00;;;;;-147.14;100.00;58812.66;5099571;27;46351;-62
2023/09/21 09:41:46;;;;;;;;;1.00;0.00;;;;;-147.14;100.00;58812.66;5094317;27;45461;-62
2023/09/21 09:44:11;;;;;;;;;0.75;0.00;;;;;-147.14;100.00;58812.66;5094504;27;45457;-62
2023/09/21 09:46:42;;;;;;;;;0.00;0.00;;;;;-147.14;100.00;58812.66;5063406;28;45515;-61
2023/09/21 09:49:08;;;;;;;;;0.00;0.00;;;;;-147.14;100.00;58812.66;5094421;27;46379;-61
2023/09/21 09:51:40;;;;;;;;;0.00;0.00;;;;;-147.14;100.00;58812.66;5081771;27;45334;-61
2023/09/21 09:54:08;;;;;;;;;0.00;0.00;;;;;-147.14;100.00;58812.66;5078528;27;45462;-61
2023/09/21 09:56:36;;;;;;;;;0.00;0.00;;;;;-147.14;100.00;58812.66;5082078;27;45511;-60
2023/09/21 09:59:03;;;;;;;;;0.00;0.00;;;;;-147.14;100.00;58812.66;5065588;27;45315;-60
2023/09/21 10:01:29;;;;;;;;;0.50;0.00;;;;;-147.14;100.00;58812.66;5080103;28;53797;-61
2023/09/21 10:03:55;;;;;;;;;0.00;0.00;;;;;-147.14;100.00;58812.66;5077204;27;48202;-61
2023/09/21 10:06:21;;;;;;;;;2.00;1.67;;;;;-147.14;100.00;58812.66;5081466;27;45547;-61
2023/09/21 10:08:46;;;;;;;;;0.00;0.00;;;;;-147.14;100.00;58812.66;5081718;27;45258;-61
2023/09/21 10:11:13;;;;;;;;;1.00;1.00;;;;;-147.14;100.00;58812.66;5100830;27;45342;-61
2023/09/21 10:14:06;;;;;;;;;0.00;0.00;;;;;-147.14;100.00;58812.66;5099513;27;45382;-61
2023/09/21 10:16:31;;;;;;;;;0.00;0.00;;;;;-147.14;100.00;58812.66;5077266;27;45445;-61
2023/09/21 10:18:58;;;;;;;;;1.00;0.00;;;;;-147.14;100.00;58812.66;5082234;27;45390;-61
2023/09/21 10:21:31;;;;;;;;;0.00;0.00;;;;;-147.14;100.00;58812.66;5098784;27;45300;-61
2023/09/21 10:24:03;;;;;;;;;0.75;0.75;;;;;-147.14;100.00;58812.66;5099431;27;45561;-63
2023/09/21 10:26:38;;;;;;;;;0.00;0.00;;;;;-147.14;100.00;58812.66;5096399;27;45313;-62
2023/09/21 10:29:05;;;;;;;;;1.00;0.00;;;;;-147.14;100.00;58812.66;5092500;27;45315;-62
2023/09/21 10:31:32;;;;;;;;;0.00;0.00;;;;;-147.14;100.00;58812.66;5100301;27;45290;-63
2023/09/21 10:33:58;;;;;;;;;0.75;0.25;;;;;-147.14;100.00;58812.66;5098600;27;45425;-62
2023/09/21 10:36:26;;;;;;;;;0.00;0.00;;;;;-147.14;100.00;58812.66;5095439;27;45821;-65
2023/09/21 10:39:24;;;;;;;;;0.75;0.75;;;;;-147.14;100.00;58812.66;5091162;27;45379;-62
2023/09/21 10:41:52;;;;;;;;;0.00;0.00;;;;;-147.14;100.00;58812.66;5091585;27;45525;-62
2023/09/21 10:44:56;;;;;;;;;2.00;0.00;;;;;-147.14;100.00;58812.66;5088872;27;45357;-63
2023/09/21 10:47:25;;;;;;;;;1.00;1.00;;;;;-147.14;100.00;58812.66;5081066;27;45448;-63
2023/09/21 10:49:51;;;;;;;;;0.00;0.00;;;;;-147.14;100.00;58812.66;5095810;27;45346;-62
2023/09/21 10:52:16;;;;;;;;;1.00;1.00;;;;;-147.14;100.00;58812.66;5078375;27;45324;-62
2023/09/21 10:54:42;;;;;;;;;0.25;0.25;;;;;-147.14;100.00;58812.66;5098875;27;60160;-62
2023/09/21 10:57:09;;;;;;;;;1.00;1.00;;;;;-147.14;100.00;58812.66;5063066;27;45363;-62
2023/09/21 10:59:35;;;;;;;;;1.25;1.00;;;;;-147.14;100.00;58812.66;5080716;27;47007;-62
2023/09/21 11:02:01;;;;;;;;;1.50;0.00;;;;;-147.14;100.00;58812.66;5098667;27;45661;-62
2023/09/21 11:04:27;;;;;;;;;1.00;1.00;;;;;-147.14;100.00;58812.66;5061738;27;45496;-62
2023/09/21 11:06:52;;;;;;;;;1.00;1.00;;;;;-147.14;100.00;58812.66;5099296;27;45462;-62
2023/09/21 11:09:18;;;;;;;;;1.25;1.25;;;;;-147.14;100.00;58812.66;5097098;27;74973;-62
2023/09/21 11:11:44;;;;;;;;;1.00;1.00;;;;;-147.14;100.00;58812.66;5098503;27;45666;-62
2023/09/21 11:14:09;;;;;;;;;2.00;2.00;;;;;-147.14;100.00;58812.66;5099063;27;45326;-62
2023/09/21 11:16:35;;;;;;;;;1.00;1.00;;;;;-147.14;100.00;58812.66;5097319;27;45366;-62
2023/09/21 11:19:01;;;;;;;;;3.00;2.00;;;;;-147.14;100.00;58812.66;5094558;27;69108;-63
2023/09/21 11:21:27;;;;;;;;;3.33;3.33;;;;;-147.14;100.00;58812.66;5095054;27;71567;-62